Time;durP1;ratioP1;P1;durP2;ratioP2;P2;SDS_P1;SDS_P2;PMS_P1;PMS_P2;Temp;Humidity;BMP_temperature;BMP_pressure;BME280_temperature;BME280_humidity;BME280_pressure;Samples;Min_cycle;Max_cycle;Signal;HPM_P1;HPM_P2
2023/02/08 00:00:23;;;;;;;16.20;6.00;;;-0.20;99.90;;;;;;5036672;28;20480;-72
2023/02/08 00:02:49;;;;;;;16.02;5.65;;;-0.20;99.90;;;;;;5043370;28;20037;-74
2023/02/08 00:05:16;;;;;;;14.27;6.32;;;-0.20;99.90;;;;;;5041413;28;20041;-74
2023/02/08 00:07:41;;;;;;;15.10;6.10;;;-0.20;99.90;;;;;;5052279;28;20075;-72
2023/02/08 00:10:09;;;;;;;15.73;6.28;;;-0.20;99.90;;;;;;5038931;28;20497;-74
2023/02/08 00:12:35;;;;;;;13.05;6.25;;;-0.20;99.90;;;;;;5037329;28;20502;-73
2023/02/08 00:15:01;;;;;;;16.65;6.20;;;-0.20;99.90;;;;;;5041932;28;20094;-72
2023/02/08 00:17:27;;;;;;;13.88;6.10;;;-0.20;99.90;;;;;;5048303;28;20120;-72
2023/02/08 00:19:52;;;;;;;18.15;6.50;;;-0.20;99.90;;;;;;5039305;28;20037;-73
2023/02/08 00:22:18;;;;;;;15.93;6.10;;;-0.20;99.90;;;;;;5037542;28;20034;-74
2023/02/08 00:24:43;;;;;;;12.88;5.38;;;0.00;99.90;;;;;;5040759;28;20438;-74
2023/02/08 00:27:09;;;;;;;14.50;6.10;;;0.00;99.90;;;;;;5056088;28;20048;-71
2023/02/08 00:29:34;;;;;;;13.45;6.13;;;0.00;99.90;;;;;;5035549;28;20033;-74
2023/02/08 00:32:00;;;;;;;13.65;5.88;;;0.10;99.90;;;;;;5040407;28;20552;-73
2023/02/08 00:34:26;;;;;;;18.60;7.82;;;0.00;99.90;;;;;;5040802;28;20767;-72
2023/02/08 00:36:52;;;;;;;16.92;6.68;;;0.10;99.90;;;;;;5041355;28;20112;-72
2023/02/08 00:39:19;;;;;;;15.05;7.05;;;0.00;99.90;;;;;;5036469;28;20032;-72
2023/02/08 00:41:46;;;;;;;16.48;6.22;;;0.00;99.90;;;;;;5035898;28;20026;-73
2023/02/08 00:44:11;;;;;;;15.23;5.63;;;0.00;99.90;;;;;;5040808;28;20473;-75
2023/02/08 00:46:37;;;;;;;14.60;6.22;;;-0.10;99.90;;;;;;5041738;28;20035;-72
2023/02/08 00:49:02;;;;;;;13.88;6.47;;;-0.10;99.90;;;;;;5040298;28;20045;-73
2023/02/08 00:51:28;;;;;;;15.07;5.68;;;-0.10;99.90;;;;;;5038621;28;20073;-72
2023/02/08 00:53:54;;;;;;;14.88;5.88;;;-0.10;99.90;;;;;;5040599;28;20090;-73
2023/02/08 00:56:19;;;;;;;18.08;5.72;;;-0.20;99.90;;;;;;5039967;28;20106;-73
2023/02/08 00:58:45;;;;;;;16.27;6.20;;;-0.20;99.90;;;;;;5051991;28;20079;-72
2023/02/08 01:01:11;;;;;;;17.10;5.57;;;-0.20;99.90;;;;;;5054987;28;20091;-72
2023/02/08 01:03:38;;;;;;;12.60;5.95;;;-0.20;99.90;;;;;;5040426;28;20033;-73
2023/02/08 01:06:07;;;;;;;13.15;6.13;;;-0.20;99.90;;;;;;5040683;28;20080;-74
2023/02/08 01:08:32;;;;;;;12.90;5.88;;;-0.30;99.90;;;;;;5035393;28;20556;-72
2023/02/08 01:11:13;;;;;;;15.20;6.13;;;-0.30;99.90;;;;;;5041618;28;20044;-72
2023/02/08 01:13:39;;;;;;;11.88;5.30;;;-0.30;99.90;;;;;;5043116;28;20037;-74
2023/02/08 01:16:12;;;;;;;15.65;5.95;;;-0.30;99.90;;;;;;5044453;28;20102;-75
2023/02/08 01:18:39;;;;;;;13.45;5.03;;;-0.40;99.90;;;;;;5040963;28;20087;-73
2023/02/08 01:21:11;;;;;;;14.00;5.47;;;-0.40;99.90;;;;;;5044881;28;20033;-74
2023/02/08 01:23:37;;;;;;;14.68;6.82;;;-0.40;99.90;;;;;;5044155;28;20037;-72
2023/02/08 01:26:04;;;;;;;16.38;5.63;;;-0.40;99.90;;;;;;5048785;28;20535;-73
2023/02/08 01:28:30;;;;;;;14.25;5.45;;;-0.40;99.90;;;;;;5044003;28;20044;-72
2023/02/08 01:30:56;;;;;;;11.60;5.55;;;-0.50;99.90;;;;;;5027541;28;20040;-72
2023/02/08 01:33:21;;;;;;;13.05;5.95;;;-0.50;99.90;;;;;;5026894;28;20041;-73
2023/02/08 01:35:54;;;;;;;12.32;5.85;;;-0.40;99.90;;;;;;5025422;28;20033;-74
2023/02/08 01:38:20;;;;;;;14.93;5.93;;;-0.40;99.90;;;;;;5024452;28;20072;-73
2023/02/08 01:40:46;;;;;;;13.68;5.95;;;-0.30;99.90;;;;;;5026656;28;20057;-73
2023/02/08 01:43:25;;;;;;;11.55;5.18;;;-0.20;99.90;;;;;;5026579;28;20053;-73
2023/02/08 01:45:51;;;;;;;11.93;5.18;;;-0.20;99.90;;;;;;5025142;28;20063;-73
2023/02/08 01:48:33;;;;;;;11.65;5.50;;;-0.10;99.90;;;;;;5026106;28;20029;-73
2023/02/08 01:51:08;;;;;;;14.93;6.00;;;-0.10;99.90;;;;;;5039977;28;20052;-73
2023/02/08 01:53:34;;;;;;;10.60;5.38;;;-0.10;99.90;;;;;;5043008;28;20037;-73
2023/02/08 01:56:05;;;;;;;15.05;6.07;;;-0.10;99.90;;;;;;5043015;28;20037;-74
2023/02/08 01:58:35;;;;;;;12.15;4.75;;;-0.10;99.90;;;;;;5044866;28;20029;-75
2023/02/08 02:01:02;;;;;;;8.63;4.63;;;0.00;99.90;;;;;;5045140;28;20029;-74
2023/02/08 02:03:28;;;;;;;10.43;5.25;;;0.00;99.90;;;;;;5040486;28;20656;-74
2023/02/08 02:06:09;;;;;;;10.50;4.85;;;0.00;99.90;;;;;;5043391;28;20041;-72
2023/02/08 02:08:36;;;;;;;10.45;4.65;;;0.00;99.90;;;;;;5042796;28;20037;-74
2023/02/08 02:11:02;;;;;;;11.50;5.20;;;0.10;99.90;;;;;;5043744;28;20087;-73
2023/02/08 02:13:29;;;;;;;14.85;5.32;;;0.20;99.90;;;;;;5038298;28;20445;-73
2023/02/08 02:15:55;;;;;;;11.77;5.05;;;0.10;99.90;;;;;;5043755;28;20155;-73
2023/02/08 02:18:29;;;;;;;12.73;4.55;;;0.10;99.90;;;;;;5043004;28;20041;-72
2023/02/08 02:21:35;;;;;;;11.63;4.80;;;0.10;99.90;;;;;;5050758;28;20129;-74
2023/02/08 02:24:41;;;;;;;14.85;5.70;;;0.10;99.90;;;;;;5039509;28;20083;-73
2023/02/08 02:27:10;;;;;;;12.55;5.35;;;0.20;99.90;;;;;;5050366;28;20037;-73
2023/02/08 02:29:38;;;;;;;13.40;5.32;;;0.20;99.90;;;;;;5048666;28;20090;-73
2023/02/08 02:32:25;;;;;;;10.88;5.15;;;0.10;99.90;;;;;;5046338;28;20037;-73
2023/02/08 02:35:10;;;;;;;11.40;5.18;;;0.10;99.90;;;;;;5044028;28;20044;-73
2023/02/08 02:38:01;;;;;;;10.52;4.95;;;0.00;99.90;;;;;;5041294;28;20087;-73
2023/02/08 02:40:38;;;;;;;11.60;5.80;;;0.00;99.90;;;;;;5036364;28;20029;-72
2023/02/08 02:46:39;;;;;;;13.23;5.22;;;-0.10;99.90;;;;;;5045762;28;20166;-73
2023/02/08 02:49:31;;;;;;;11.90;4.68;;;-0.30;99.90;;;;;;5038879;28;20065;-73
2023/02/08 02:52:06;;;;;;;11.85;4.95;;;-0.40;99.90;;;;;;5040259;28;20074;-73
2023/02/08 02:54:39;;;;;;;11.98;4.30;;;-0.40;99.90;;;;;;5038977;28;20060;-74
2023/02/08 02:57:09;;;;;;;14.25;5.45;;;-0.50;99.90;;;;;;5042657;28;20037;-73
2023/02/08 02:59:36;;;;;;;11.55;5.25;;;-0.50;99.90;;;;;;5040535;28;20079;-73
2023/02/08 03:02:03;;;;;;;18.63;5.63;;;-0.60;99.90;;;;;;5039246;28;20575;-74
2023/02/08 03:04:32;;;;;;;12.00;5.60;;;-0.60;99.90;;;;;;5040618;28;20441;-74
2023/02/08 03:07:12;;;;;;;10.63;5.55;;;-0.60;99.90;;;;;;5042961;28;20037;-73
2023/02/08 03:10:00;;;;;;;11.68;5.10;;;-0.50;99.90;;;;;;5035336;28;20041;-73
2023/02/08 03:12:30;;;;;;;13.82;5.55;;;-0.40;99.90;;;;;;5042701;28;20047;-73
2023/02/08 03:14:58;;;;;;;10.20;4.70;;;-0.40;99.90;;;;;;5036662;28;20502;-73
2023/02/08 03:17:47;;;;;;;11.88;4.88;;;-0.40;99.90;;;;;;5041779;28;20506;-73
2023/02/08 03:20:29;;;;;;;13.98;5.40;;;-0.40;99.90;;;;;;5018048;28;20037;-73
2023/02/08 03:23:18;;;;;;;9.60;4.68;;;-0.40;99.90;;;;;;5038975;28;20545;-73
2023/02/08 03:26:18;;;;;;;13.35;6.38;;;-0.30;99.90;;;;;;5055072;28;20118;-73
2023/02/08 03:29:02;;;;;;;8.20;3.95;;;-0.30;99.90;;;;;;5033190;28;20029;-74
2023/02/08 03:31:44;;;;;;;11.65;4.93;;;-0.30;99.90;;;;;;5041586;28;20056;-73
2023/02/08 03:34:11;;;;;;;10.30;4.30;;;-0.30;99.90;;;;;;5043195;28;20033;-73
2023/02/08 03:37:05;;;;;;;14.57;5.28;;;-0.30;99.90;;;;;;5039394;28;20049;-73
2023/02/08 03:39:34;;;;;;;12.50;4.80;;;-0.30;99.90;;;;;;5042581;28;20044;-72
2023/02/08 03:42:08;;;;;;;11.90;5.05;;;-0.30;99.90;;;;;;5046292;28;20037;-72
2023/02/08 03:44:50;;;;;;;9.80;4.38;;;-0.20;99.90;;;;;;5050930;28;20029;-72
2023/02/08 03:47:20;;;;;;;9.43;4.25;;;-0.10;99.90;;;;;;5047782;28;20040;-72
2023/02/08 03:49:51;;;;;;;10.98;4.63;;;-0.10;99.90;;;;;;5052065;28;20042;-72
2023/02/08 03:52:17;;;;;;;10.45;4.95;;;-0.10;99.90;;;;;;5053198;28;20049;-71
2023/02/08 03:54:53;;;;;;;14.40;5.38;;;-0.10;99.90;;;;;;5052177;28;20033;-72
2023/02/08 03:57:27;;;;;;;9.88;4.93;;;-0.10;99.90;;;;;;5048013;28;20057;-74
2023/02/08 04:00:15;;;;;;;11.15;5.03;;;-0.20;99.90;;;;;;5046030;28;20037;-72
2023/02/08 04:02:50;;;;;;;9.98;4.50;;;-0.20;99.90;;;;;;5037160;28;20039;-72
2023/02/08 04:05:17;;;;;;;11.40;4.70;;;-0.20;99.90;;;;;;5038343;28;20067;-74
2023/02/08 04:07:42;;;;;;;11.35;5.38;;;-0.20;99.90;;;;;;5039808;28;20025;-72
2023/02/08 04:10:08;;;;;;;9.77;4.50;;;-0.20;99.90;;;;;;5038319;28;20041;-72
2023/02/08 04:12:35;;;;;;;13.93;4.90;;;0.00;99.90;;;;;;5037983;28;20034;-72
2023/02/08 04:15:00;;;;;;;10.27;4.63;;;-0.10;99.90;;;;;;5041186;28;20489;-72
2023/02/08 04:17:26;;;;;;;10.23;4.50;;;0.00;99.90;;;;;;5039574;28;20090;-71
2023/02/08 04:19:52;;;;;;;14.10;4.72;;;0.00;99.90;;;;;;5037130;28;20140;-72
2023/02/08 04:22:17;;;;;;;14.05;4.95;;;0.00;99.90;;;;;;5039182;28;20037;-72
2023/02/08 04:24:43;;;;;;;9.02;4.25;;;0.10;99.90;;;;;;5040626;28;20029;-72
2023/02/08 04:27:08;;;;;;;9.07;4.47;;;0.00;99.90;;;;;;5043343;28;20040;-72
2023/02/08 04:29:34;;;;;;;13.98;4.97;;;-0.10;99.90;;;;;;5037905;28;20051;-72
2023/02/08 04:32:00;;;;;;;9.75;4.15;;;-0.10;99.90;;;;;;5044238;28;20547;-74
2023/02/08 04:34:26;;;;;;;12.52;4.97;;;-0.10;99.90;;;;;;5042178;28;20029;-72
2023/02/08 04:36:52;;;;;;;14.20;5.25;;;-0.10;99.90;;;;;;5039981;28;20468;-72
2023/02/08 04:39:17;;;;;;;14.23;5.43;;;-0.10;99.90;;;;;;5035560;28;20040;-72
2023/02/08 04:41:43;;;;;;;11.48;4.80;;;-0.10;99.90;;;;;;5041072;28;20037;-72
2023/02/08 04:44:08;;;;;;;16.10;5.13;;;-0.10;99.90;;;;;;5039561;28;20057;-72
2023/02/08 04:46:34;;;;;;;9.35;4.88;;;-0.10;99.90;;;;;;5036959;28;20026;-72
2023/02/08 04:48:59;;;;;;;10.32;4.90;;;-0.20;99.90;;;;;;5041333;28;20940;-72
2023/02/08 04:51:25;;;;;;;9.38;4.25;;;-0.10;99.90;;;;;;5050733;28;20045;-71
2023/02/08 04:53:51;;;;;;;10.95;5.10;;;-0.20;99.90;;;;;;5039834;28;20029;-72
2023/02/08 04:56:16;;;;;;;14.18;5.20;;;-0.20;99.90;;;;;;5039089;28;20114;-72
2023/02/08 04:58:42;;;;;;;11.45;4.28;;;-0.20;99.90;;;;;;5039137;28;20037;-72
2023/02/08 05:01:09;;;;;;;11.70;4.47;;;-0.10;99.90;;;;;;5039658;28;20037;-72
2023/02/08 05:03:35;;;;;;;9.60;4.35;;;-0.10;99.90;;;;;;5036412;28;20057;-73
2023/02/08 05:06:01;;;;;;;10.18;4.13;;;-0.20;99.90;;;;;;5042335;28;20061;-71
2023/02/08 05:08:27;;;;;;;11.02;4.93;;;-0.20;99.90;;;;;;5055496;28;20043;-73
2023/02/08 05:10:52;;;;;;;9.82;4.50;;;-0.20;99.90;;;;;;5042248;28;20051;-71
2023/02/08 05:13:18;;;;;;;11.80;4.50;;;-0.30;99.90;;;;;;5041386;28;20566;-72
2023/02/08 05:15:44;;;;;;;15.55;4.55;;;-0.30;99.90;;;;;;5040840;28;20116;-72
2023/02/08 05:18:09;;;;;;;10.43;4.45;;;-0.30;99.90;;;;;;5044842;28;20048;-74
2023/02/08 05:20:35;;;;;;;9.65;4.30;;;-0.30;99.90;;;;;;5043113;28;20037;-72
2023/02/08 05:23:00;;;;;;;9.98;4.78;;;-0.30;99.90;;;;;;5044213;28;20036;-73
2023/02/08 05:25:26;;;;;;;15.70;4.43;;;-0.30;99.90;;;;;;5040255;28;20151;-72
2023/02/08 05:27:52;;;;;;;11.38;4.97;;;-0.30;99.90;;;;;;5042294;28;21115;-71
2023/02/08 05:30:17;;;;;;;10.68;4.60;;;-0.30;99.90;;;;;;5040508;28;20116;-73
2023/02/08 05:32:43;;;;;;;12.07;4.72;;;-0.30;99.90;;;;;;5038554;28;20040;-71
2023/02/08 05:35:08;;;;;;;15.10;5.13;;;-0.30;99.90;;;;;;5039751;28;20046;-72
2023/02/08 05:37:34;;;;;;;9.20;4.22;;;-0.40;99.90;;;;;;5045390;28;20488;-72
2023/02/08 05:40:00;;;;;;;12.75;5.28;;;-0.40;99.90;;;;;;5048409;28;20088;-74
2023/02/08 05:42:26;;;;;;;12.98;4.80;;;-0.40;99.90;;;;;;5044988;28;20039;-72
2023/02/08 05:44:51;;;;;;;14.68;5.30;;;-0.40;99.90;;;;;;5045614;28;20025;-72
2023/02/08 05:47:17;;;;;;;11.32;4.43;;;-0.40;99.90;;;;;;5046071;28;20041;-71
2023/02/08 05:49:43;;;;;;;9.25;4.32;;;-0.40;99.90;;;;;;5046047;28;20040;-72
2023/02/08 05:52:08;;;;;;;12.88;5.32;;;-0.40;99.90;;;;;;5047278;28;20481;-72
2023/02/08 05:54:34;;;;;;;13.32;4.75;;;-0.40;99.90;;;;;;5042413;28;20033;-72
2023/02/08 05:57:00;;;;;;;12.55;5.13;;;-0.40;99.90;;;;;;5040078;28;20440;-71
2023/02/08 05:59:25;;;;;;;12.07;4.97;;;-0.50;99.90;;;;;;5040565;28;20405;-72
2023/02/08 06:01:51;;;;;;;13.35;5.15;;;-0.50;99.90;;;;;;5039371;28;20025;-72
2023/02/08 06:04:16;;;;;;;14.35;5.78;;;-0.60;99.90;;;;;;5039590;28;20026;-71
2023/02/08 06:06:42;;;;;;;10.43;5.20;;;-0.60;99.90;;;;;;5043071;28;20025;-71
2023/02/08 06:09:08;;;;;;;10.50;4.85;;;-0.60;99.90;;;;;;5042903;28;20032;-73
2023/02/08 06:11:34;;;;;;;15.60;5.40;;;-0.60;99.90;;;;;;5043529;28;20041;-72
2023/02/08 06:14:01;;;;;;;10.88;4.85;;;-0.70;99.90;;;;;;5035718;28;20084;-72
2023/02/08 06:16:27;;;;;;;12.88;5.55;;;-0.60;99.90;;;;;;5040930;28;20060;-72
2023/02/08 06:18:53;;;;;;;13.07;5.60;;;-0.60;99.90;;;;;;5040030;28;20044;-72
2023/02/08 06:21:18;;;;;;;14.20;4.97;;;-0.60;99.90;;;;;;5038146;28;20046;-71
2023/02/08 06:23:44;;;;;;;14.10;5.10;;;-0.50;99.90;;;;;;5052755;28;20025;-71
2023/02/08 06:26:10;;;;;;;11.73;4.20;;;-0.50;99.90;;;;;;5042230;28;20132;-71
2023/02/08 06:28:35;;;;;;;15.02;5.43;;;-0.50;99.90;;;;;;5041705;28;20131;-73
2023/02/08 06:31:01;;;;;;;13.13;5.22;;;-0.60;99.90;;;;;;5030461;28;20044;-73
2023/02/08 06:33:27;;;;;;;17.00;5.05;;;-0.50;99.90;;;;;;5041397;28;20126;-72
2023/02/08 06:35:52;;;;;;;12.95;5.10;;;-0.60;99.90;;;;;;5037874;28;20159;-71
2023/02/08 06:38:19;;;;;;;10.98;4.88;;;-0.50;99.90;;;;;;5043439;28;20059;-70
2023/02/08 06:40:48;;;;;;;12.65;5.97;;;-0.50;99.90;;;;;;5039587;28;20401;-71
2023/02/08 06:43:14;;;;;;;13.27;5.40;;;-0.50;99.90;;;;;;5039255;28;20254;-72
2023/02/08 06:45:41;;;;;;;11.15;4.38;;;-0.50;99.90;;;;;;5041342;28;20037;-71
2023/02/08 06:48:07;;;;;;;14.90;5.55;;;-0.60;99.90;;;;;;5041505;28;20134;-72
2023/02/08 06:50:32;;;;;;;13.25;5.75;;;-0.60;99.90;;;;;;5030657;28;20049;-72
2023/02/08 06:52:58;;;;;;;11.32;4.90;;;-0.60;99.90;;;;;;5042604;28;20045;-71
2023/02/08 06:55:24;;;;;;;12.80;5.35;;;-0.60;99.90;;;;;;5041500;28;20044;-72
2023/02/08 06:57:52;;;;;;;10.35;4.65;;;-0.60;99.90;;;;;;5039204;28;20025;-72
2023/02/08 07:00:18;;;;;;;11.30;5.07;;;-0.70;99.90;;;;;;5044412;28;20068;-71
2023/02/08 07:02:46;;;;;;;18.58;5.78;;;-0.70;99.90;;;;;;5053102;28;20025;-73
2023/02/08 07:05:12;;;;;;;12.68;4.85;;;-0.70;99.90;;;;;;5043202;28;20488;-72
2023/02/08 07:07:38;;;;;;;13.98;5.35;;;-0.70;99.90;;;;;;5045905;28;20037;-72
2023/02/08 07:10:04;;;;;;;8.82;4.15;;;-0.70;99.90;;;;;;5052714;28;20052;-73
2023/02/08 07:12:33;;;;;;;13.48;5.40;;;-0.60;99.90;;;;;;5036521;28;20040;-73
2023/02/08 07:14:59;;;;;;;14.82;5.20;;;-0.60;99.90;;;;;;5027082;28;20041;-73
2023/02/08 07:17:24;;;;;;;11.13;5.15;;;-0.60;99.90;;;;;;5042144;28;20391;-73
2023/02/08 07:19:50;;;;;;;12.73;5.35;;;-0.60;99.90;;;;;;5041979;28;20206;-72
2023/02/08 07:22:16;;;;;;;15.07;6.22;;;-0.60;99.90;;;;;;5038708;28;20481;-72
2023/02/08 07:24:41;;;;;;;10.23;4.30;;;-0.70;99.90;;;;;;5039609;28;20036;-73
2023/02/08 07:27:09;;;;;;;12.45;5.32;;;-0.70;99.90;;;;;;5043673;28;20032;-73
2023/02/08 07:29:35;;;;;;;16.73;5.22;;;-0.70;99.90;;;;;;5040555;28;20036;-72
2023/02/08 07:32:02;;;;;;;15.30;5.32;;;-0.70;99.90;;;;;;5037615;28;20047;-73
2023/02/08 07:34:29;;;;;;;13.50;5.93;;;-0.60;99.90;;;;;;5032167;28;20044;-72
2023/02/08 07:36:55;;;;;;;11.27;5.18;;;-0.60;99.90;;;;;;5040945;28;20413;-72
2023/02/08 07:39:20;;;;;;;14.43;4.45;;;-0.60;99.90;;;;;;5039844;28;20040;-73
2023/02/08 07:41:47;;;;;;;10.27;4.75;;;-0.70;99.90;;;;;;5041886;28;20082;-73
2023/02/08 07:44:12;;;;;;;16.15;5.28;;;-0.60;99.90;;;;;;5041293;28;20033;-73
2023/02/08 07:46:39;;;;;;;10.98;5.15;;;-0.70;99.90;;;;;;5040827;28;20055;-72
2023/02/08 07:49:04;;;;;;;19.08;5.78;;;-0.70;99.90;;;;;;5036949;28;20049;-73
2023/02/08 07:51:30;;;;;;;16.98;6.30;;;-0.70;99.90;;;;;;5040927;28;20059;-73
2023/02/08 07:53:55;;;;;;;16.35;6.03;;;-0.60;99.90;;;;;;5040866;28;20036;-73
2023/02/08 07:56:21;;;;;;;14.50;4.65;;;-0.50;99.90;;;;;;5041874;28;20556;-74
2023/02/08 07:58:46;;;;;;;18.77;6.63;;;-0.50;99.90;;;;;;5042036;28;20041;-73
2023/02/08 08:01:12;;;;;;;13.75;5.78;;;-0.50;99.90;;;;;;5039978;28;20037;-72
2023/02/08 08:03:38;;;;;;;9.93;4.68;;;-0.50;99.90;;;;;;5038013;28;20128;-73
2023/02/08 08:06:03;;;;;;;15.43;5.90;;;-0.30;99.90;;;;;;5040698;28;20079;-73
2023/02/08 08:08:29;;;;;;;15.48;6.45;;;-0.40;99.90;;;;;;5052421;28;20037;-72
2023/02/08 08:10:56;;;;;;;10.82;5.20;;;-0.40;99.90;;;;;;5045647;28;20033;-72
2023/02/08 08:13:22;;;;;;;13.50;5.15;;;-0.30;99.90;;;;;;5040001;28;20378;-73
2023/02/08 08:15:47;;;;;;;13.02;5.70;;;-0.30;99.90;;;;;;5051669;28;20036;-72
2023/02/08 08:18:13;;;;;;;13.25;5.68;;;-0.30;99.90;;;;;;5040354;28;20041;-72
2023/02/08 08:20:38;;;;;;;19.60;6.07;;;-0.30;99.90;;;;;;5034672;28;20464;-72
2023/02/08 08:23:04;;;;;;;11.75;4.68;;;-0.20;99.90;;;;;;5041674;28;20553;-73
2023/02/08 08:25:30;;;;;;;15.07;5.10;;;-0.20;99.90;;;;;;5040161;28;20102;-73
2023/02/08 08:27:56;;;;;;;14.05;4.80;;;-0.10;99.90;;;;;;5040825;28;20051;-72
2023/02/08 08:30:22;;;;;;;13.45;4.85;;;0.00;99.90;;;;;;5035785;28;20439;-73
2023/02/08 08:32:48;;;;;;;10.65;4.75;;;0.10;99.90;;;;;;5038750;28;20033;-74
2023/02/08 08:35:13;;;;;;;11.15;4.70;;;0.20;99.90;;;;;;5036375;28;20465;-72
2023/02/08 08:37:39;;;;;;;9.88;4.53;;;0.30;99.90;;;;;;5040122;28;20041;-72
2023/02/08 08:40:06;;;;;;;13.85;4.50;;;0.30;99.90;;;;;;5040196;28;20048;-73
2023/02/08 08:42:32;;;;;;;12.18;4.43;;;0.50;99.90;;;;;;5032491;28;20976;-72
2023/02/08 08:44:58;;;;;;;10.30;4.85;;;0.60;99.90;;;;;;5038945;28;20048;-72
2023/02/08 08:47:24;;;;;;;14.35;5.68;;;0.60;99.90;;;;;;5030877;28;20037;-72
2023/02/08 08:49:49;;;;;;;14.38;5.57;;;0.80;99.90;;;;;;5042602;28;20722;-73
2023/02/08 08:52:16;;;;;;;12.02;4.75;;;0.90;99.90;;;;;;5030173;28;20111;-72
2023/02/08 08:54:41;;;;;;;12.13;5.00;;;1.00;99.90;;;;;;5037610;28;20037;-73
2023/02/08 08:57:07;;;;;;;12.40;4.70;;;1.10;99.90;;;;;;5036294;28;20826;-73
2023/02/08 08:59:33;;;;;;;13.25;4.22;;;1.10;99.90;;;;;;5041759;28;20110;-72
2023/02/08 09:01:58;;;;;;;11.38;4.70;;;1.20;99.90;;;;;;5028451;28;20557;-72
2023/02/08 09:04:24;;;;;;;12.90;5.13;;;1.20;99.90;;;;;;5031100;28;20049;-73
2023/02/08 09:06:51;;;;;;;13.95;4.80;;;1.30;99.90;;;;;;5036659;28;20029;-72
2023/02/08 09:09:18;;;;;;;13.73;5.40;;;1.40;99.90;;;;;;5033330;28;20306;-73
2023/02/08 09:11:44;;;;;;;9.70;4.93;;;1.50;99.90;;;;;;5038103;28;20048;-73
2023/02/08 09:14:10;;;;;;;9.93;4.90;;;1.50;99.90;;;;;;5034608;28;20188;-72
2023/02/08 09:16:36;;;;;;;14.48;5.20;;;1.60;99.90;;;;;;5036443;28;20127;-71
2023/02/08 09:19:04;;;;;;;16.00;4.78;;;1.70;99.90;;;;;;5032137;28;20048;-73
2023/02/08 09:21:30;;;;;;;16.92;5.63;;;1.70;99.90;;;;;;5032014;28;20037;-72
2023/02/08 09:23:56;;;;;;;12.98;4.63;;;1.70;99.90;;;;;;5034702;28;20776;-72
2023/02/08 09:26:23;;;;;;;12.98;5.80;;;1.80;99.90;;;;;;5037239;28;20052;-72
2023/02/08 09:28:49;;;;;;;10.18;4.70;;;1.90;99.90;;;;;;5030985;28;20064;-72
2023/02/08 09:31:23;;;;;;;13.68;5.25;;;2.00;99.90;;;;;;5036880;28;20497;-75
2023/02/08 09:33:49;;;;;;;12.02;5.10;;;2.00;99.90;;;;;;5036390;28;20044;-72
2023/02/08 09:36:16;;;;;;;16.60;4.90;;;2.10;99.90;;;;;;5036134;28;20516;-72
2023/02/08 09:38:43;;;;;;;12.82;4.80;;;2.10;99.90;;;;;;5028511;28;20037;-73
2023/02/08 09:41:32;;;;;;;11.50;4.55;;;2.20;99.90;;;;;;5031686;28;20504;-72
2023/02/08 09:44:21;;;;;;;10.48;4.90;;;2.30;99.90;;;;;;5027199;28;20045;-72
2023/02/08 09:46:57;;;;;;;13.30;4.35;;;2.30;99.90;;;;;;5040088;28;20140;-73
2023/02/08 09:49:29;;;;;;;15.85;5.72;;;2.40;99.90;;;;;;5035344;28;20045;-72
2023/02/08 09:52:02;;;;;;;11.93;4.50;;;2.40;99.90;;;;;;5040931;28;20150;-72
2023/02/08 09:54:38;;;;;;;11.77;4.85;;;2.50;99.90;;;;;;5034398;28;20099;-72
2023/02/08 09:57:10;;;;;;;11.43;5.18;;;2.50;99.90;;;;;;5033016;28;20053;-72
2023/02/08 09:59:39;;;;;;;12.60;5.30;;;2.60;99.90;;;;;;5045911;28;20040;-72
2023/02/08 10:02:27;;;;;;;11.60;4.35;;;2.70;99.90;;;;;;5059343;28;20034;-72
2023/02/08 10:05:13;;;;;;;9.55;4.38;;;2.80;99.90;;;;;;5038124;28;20397;-73
2023/02/08 10:07:41;;;;;;;10.23;5.10;;;2.90;99.90;;;;;;5047816;28;20029;-74
2023/02/08 10:10:16;;;;;;;14.02;5.75;;;3.00;99.90;;;;;;5043925;28;20295;-73
2023/02/08 10:13:18;;;;;;;12.73;4.65;;;3.10;99.90;;;;;;5045809;28;20033;-71
2023/02/08 10:15:57;;;;;;;15.70;5.03;;;3.10;99.90;;;;;;5046184;28;20094;-72
2023/02/08 10:18:51;;;;;;;10.48;5.18;;;3.10;99.90;;;;;;5051072;28;20820;-73
2023/02/08 10:21:51;;;;;;;13.18;5.18;;;3.20;99.90;;;;;;5021399;28;20041;-73
2023/02/08 10:24:35;;;;;;;13.80;5.47;;;3.20;99.90;;;;;;5041231;28;20481;-74
2023/02/08 10:27:22;;;;;;;17.35;4.75;;;3.30;99.90;;;;;;5040174;28;20260;-73
2023/02/08 10:30:24;;;;;;;12.00;5.65;;;3.30;99.90;;;;;;5041432;28;20025;-73
2023/02/08 10:32:57;;;;;;;9.45;4.50;;;3.40;99.90;;;;;;5043634;28;20115;-74
2023/02/08 10:35:37;;;;;;;9.70;4.68;;;3.40;99.90;;;;;;5052934;28;20041;-73
2023/02/08 10:38:18;;;;;;;12.05;4.32;;;3.40;99.90;;;;;;5049345;28;20040;-73
2023/02/08 10:40:45;;;;;;;10.23;4.82;;;3.50;99.90;;;;;;5046637;28;20024;-73
2023/02/08 10:43:39;;;;;;;11.00;5.65;;;3.50;99.90;;;;;;5047058;28;20519;-73
2023/02/08 10:46:04;;;;;;;8.23;3.97;;;3.60;99.90;;;;;;5042137;28;20550;-72
2023/02/08 10:48:45;;;;;;;12.65;4.72;;;3.70;99.90;;;;;;5045659;28;20119;-73
2023/02/08 10:51:20;;;;;;;9.88;4.13;;;3.70;99.90;;;;;;5046720;28;20142;-72
2023/02/08 10:53:47;;;;;;;10.93;5.30;;;3.80;99.90;;;;;;5051220;28;20053;-73
2023/02/08 10:56:37;;;;;;;9.70;4.53;;;3.90;99.90;;;;;;5046158;28;20413;-73
2023/02/08 10:59:33;;;;;;;9.13;4.15;;;3.90;99.90;;;;;;5044156;28;20041;-72
2023/02/08 11:01:59;;;;;;;9.68;4.03;;;3.90;99.90;;;;;;5044765;28;20493;-74
2023/02/08 11:04:24;;;;;;;14.85;4.57;;;4.00;99.90;;;;;;5046862;28;20053;-73
2023/02/08 11:06:53;;;;;;;11.15;4.18;;;4.10;99.90;;;;;;5041322;28;20124;-75
2023/02/08 11:09:29;;;;;;;7.85;3.63;;;4.10;99.90;;;;;;5048140;28;20048;-72
2023/02/08 11:11:57;;;;;;;11.25;4.18;;;4.20;99.90;;;;;;5044473;28;20064;-74
2023/02/08 11:14:26;;;;;;;8.15;2.95;;;4.30;99.90;;;;;;5045917;28;20040;-73
2023/02/08 11:16:55;;;;;;;8.60;3.83;;;4.40;99.90;;;;;;5047229;28;20045;-72
2023/02/08 11:19:44;;;;;;;8.88;3.05;;;4.70;99.90;;;;;;5047050;28;20124;-74
2023/02/08 11:22:19;;;;;;;14.98;4.10;;;5.20;99.90;;;;;;5046812;28;20397;-73
2023/02/08 11:24:53;;;;;;;10.30;3.83;;;5.30;99.90;;;;;;5042758;28;20460;-74
2023/02/08 11:27:27;;;;;;;9.40;3.95;;;5.20;99.90;;;;;;5047247;28;20037;-75
2023/02/08 11:30:13;;;;;;;17.67;4.10;;;5.10;99.90;;;;;;5042001;28;20127;-72
2023/02/08 11:32:40;;;;;;;10.02;3.63;;;5.10;99.90;;;;;;5046425;28;20037;-73
2023/02/08 11:35:21;;;;;;;7.65;3.60;;;5.00;99.90;;;;;;5045819;28;20120;-73
2023/02/08 11:37:52;;;;;;;11.40;3.67;;;5.20;99.80;;;;;;5042993;28;20083;-73
2023/02/08 11:40:22;;;;;;;6.93;3.20;;;5.50;99.90;;;;;;5044855;28;20501;-73
2023/02/08 11:42:50;;;;;;;8.10;3.07;;;5.70;99.90;;;;;;5046178;28;20040;-73
2023/02/08 11:45:22;;;;;;;10.45;3.25;;;5.90;98.90;;;;;;5045354;28;20626;-73
2023/02/08 11:47:48;;;;;;;8.23;4.00;;;5.70;98.80;;;;;;5043298;28;20033;-74
2023/02/08 11:50:29;;;;;;;11.18;3.72;;;5.60;99.20;;;;;;5042595;28;20101;-73
2023/02/08 11:52:59;;;;;;;7.40;3.85;;;5.50;99.00;;;;;;5043766;28;20095;-74
2023/02/08 11:55:27;;;;;;;7.03;3.70;;;5.40;98.90;;;;;;5046330;28;20075;-74
2023/02/08 11:57:58;;;;;;;8.80;4.15;;;5.30;99.80;;;;;;5046055;28;20053;-73
2023/02/08 12:00:27;;;;;;;9.02;3.65;;;5.30;99.90;;;;;;5046250;28;20499;-73
2023/02/08 12:03:13;;;;;;;15.85;4.25;;;5.20;99.90;;;;;;5053111;28;20086;-73
2023/02/08 12:06:19;;;;;;;8.25;4.22;;;5.30;99.90;;;;;;5043939;28;20838;-73
2023/02/08 12:09:19;;;;;;;12.73;3.92;;;5.20;99.90;;;;;;5005760;28;20433;-74
2023/02/08 12:12:09;;;;;;;7.28;3.40;;;5.20;99.90;;;;;;5022272;28;20192;-75
2023/02/08 12:15:00;;;;;;;12.52;4.45;;;5.20;99.90;;;;;;5024667;28;20877;-73
2023/02/08 12:17:41;;;;;;;13.02;4.78;;;5.10;99.90;;;;;;5037455;28;20815;-73
2023/02/08 12:20:28;;;;;;;8.32;3.58;;;5.10;99.90;;;;;;5040930;28;20072;-74
2023/02/08 12:23:21;;;;;;;10.00;3.92;;;5.10;99.90;;;;;;5039574;28;20040;-73
2023/02/08 12:26:11;;;;;;;9.52;4.18;;;5.10;99.90;;;;;;5040457;28;20035;-73
2023/02/08 12:29:14;;;;;;;7.57;4.18;;;5.10;99.90;;;;;;5038329;28;20035;-73
2023/02/08 12:32:13;;;;;;;9.63;4.10;;;5.00;99.90;;;;;;5040553;28;20048;-74
2023/02/08 12:35:09;;;;;;;11.38;5.22;;;5.00;99.90;;;;;;5044280;28;20052;-75
2023/02/08 12:41:08;;;;;;;8.20;3.88;;;5.10;99.90;;;;;;5036584;28;20556;-73
2023/02/08 12:43:57;;;;;;;6.68;3.70;;;5.00;99.90;;;;;;5037927;28;20040;-73
2023/02/08 12:46:50;;;;;;;10.13;4.30;;;5.00;99.90;;;;;;5039173;28;20064;-73
2023/02/08 12:49:31;;;;;;;9.20;4.38;;;5.00;99.90;;;;;;5033156;28;20113;-75
2023/02/08 12:52:16;;;;;;;9.10;4.13;;;5.10;99.90;;;;;;5041132;28;20049;-72
2023/02/08 12:54:53;;;;;;;9.93;4.68;;;5.10;99.90;;;;;;5035065;28;20060;-72
2023/02/08 12:57:21;;;;;;;7.32;3.60;;;5.10;99.90;;;;;;5038873;28;20147;-73
2023/02/08 13:00:02;;;;;;;10.88;5.30;;;5.10;99.90;;;;;;5038856;28;20120;-73
2023/02/08 13:02:33;;;;;;;7.88;4.22;;;5.10;99.90;;;;;;5036377;28;20045;-73
2023/02/08 13:05:01;;;;;;;;;;;5.10;99.90;;;;;;5052951;28;20056;-72
2023/02/08 13:07:34;;;;;;;10.23;4.03;;;5.20;99.90;;;;;;5041797;28;19924;-75
2023/02/08 13:10:29;;;;;;;10.27;4.45;;;5.20;99.90;;;;;;5036620;28;20141;-73